createdAt,value
2022-11-13T00:02:09.340Z,6.63
2022-11-13T00:04:36.951Z,6.04
2022-11-13T00:07:04.573Z,5.98
2022-11-13T00:09:33.514Z,5.72
2022-11-13T00:12:01.037Z,5.55
2022-11-13T00:14:28.550Z,5.71
2022-11-13T00:16:56.058Z,5.03
2022-11-13T00:19:23.609Z,4.77
2022-11-13T00:21:51.156Z,5.38
2022-11-13T00:24:18.687Z,6.15
2022-11-13T00:26:47.579Z,6.45
2022-11-13T00:29:15.112Z,6.56
2022-11-13T00:31:42.694Z,6.89
2022-11-13T00:34:41.064Z,6.96
2022-11-13T00:36:58.899Z,6.15
2022-11-13T00:39:26.456Z,5.85
2022-11-13T00:41:55.343Z,6.07
2022-11-13T00:44:22.902Z,5.16
2022-11-13T00:46:50.447Z,4.89
2022-11-13T00:49:17.979Z,4.95
2022-11-13T00:51:45.502Z,5.00
2022-11-13T00:54:13.046Z,5.48
2022-11-13T00:56:40.586Z,5.08
2022-11-13T00:59:09.770Z,4.91
2022-11-13T01:01:37.338Z,4.46
2022-11-13T01:04:05.211Z,4.34
2022-11-13T01:06:32.742Z,3.78
2022-11-13T01:09:00.687Z,3.66
2022-11-13T01:11:30.379Z,4.01
2022-11-13T01:13:58.711Z,3.70
2022-11-13T01:16:29.077Z,3.53
2022-11-13T01:18:57.280Z,3.44
2022-11-13T01:21:27.236Z,3.34
2022-11-13T01:23:55.171Z,3.46
2022-11-13T01:26:25.449Z,3.68
2022-11-13T01:28:53.156Z,3.80
2022-11-13T01:31:22.861Z,3.94
2022-11-13T01:33:52.078Z,3.76
2022-11-13T01:36:21.998Z,3.68
2022-11-13T01:38:50.411Z,3.37
2022-11-13T01:41:23.661Z,3.48
2022-11-13T01:43:52.460Z,4.02
2022-11-13T01:46:25.530Z,4.20
2022-11-13T01:48:59.798Z,3.74
2022-11-13T01:51:30.616Z,3.42
2022-11-13T01:53:59.721Z,3.12
2022-11-13T01:56:27.318Z,3.07
2022-11-13T01:58:58.962Z,2.59
2022-11-13T02:01:26.661Z,2.82
2022-11-13T02:03:55.575Z,3.03
2022-11-13T02:06:23.621Z,3.06
2022-11-13T02:08:52.114Z,3.25
2022-11-13T02:11:21.225Z,3.46
2022-11-13T02:13:49.124Z,3.95
2022-11-13T02:16:17.821Z,4.24
2022-11-13T02:18:46.459Z,4.08
2022-11-13T02:21:29.952Z,4.11
2022-11-13T02:24:05.775Z,4.49
2022-11-13T02:26:34.996Z,4.46
2022-11-13T02:29:02.523Z,4.66
2022-11-13T02:31:30.023Z,4.53
2022-11-13T02:33:57.527Z,4.49
2022-11-13T02:36:27.532Z,4.48
2022-11-13T02:38:56.575Z,4.62
2022-11-13T02:41:24.090Z,4.64
2022-11-13T02:43:52.978Z,4.66
2022-11-13T02:46:20.492Z,4.62
2022-11-13T02:48:48.042Z,4.56
2022-11-13T02:51:15.623Z,4.30
2022-11-13T02:53:43.158Z,4.08
2022-11-13T02:56:10.648Z,3.41
2022-11-13T02:58:38.184Z,2.99
2022-11-13T03:01:07.549Z,2.61
2022-11-13T03:03:58.968Z,2.87
2022-11-13T03:06:23.066Z,3.69
2022-11-13T03:08:50.619Z,4.00
2022-11-13T03:11:18.177Z,4.09
2022-11-13T03:13:45.719Z,4.16
2022-11-13T03:16:16.873Z,4.18
2022-11-13T03:18:44.451Z,4.25
2022-11-13T03:21:14.126Z,4.30
2022-11-13T03:23:44.897Z,3.71
2022-11-13T03:26:14.190Z,3.96
2022-11-13T03:28:41.830Z,3.87
2022-11-13T03:31:09.772Z,3.36
2022-11-13T03:33:38.775Z,3.62
2022-11-13T03:36:07.135Z,3.65
2022-11-13T03:38:34.698Z,3.84
2022-11-13T03:41:02.426Z,3.99
2022-11-13T03:43:30.035Z,4.03
2022-11-13T03:45:57.595Z,3.68
2022-11-13T03:48:25.300Z,3.53
2022-11-13T03:50:56.571Z,3.59
2022-11-13T03:53:24.132Z,3.19
2022-11-13T03:55:51.892Z,2.69
2022-11-13T03:58:20.651Z,2.39
2022-11-13T04:00:49.368Z,3.34
2022-11-13T04:03:17.160Z,2.70
2022-11-13T04:05:44.782Z,2.62
2022-11-13T04:08:13.695Z,3.07
2022-11-13T04:10:41.266Z,2.79
2022-11-13T04:13:09.042Z,2.43
2022-11-13T04:15:36.642Z,2.48
2022-11-13T04:18:04.798Z,2.80
2022-11-13T04:20:32.434Z,2.79
2022-11-13T04:23:00.087Z,2.82
2022-11-13T04:25:29.020Z,2.59
2022-11-13T04:27:56.545Z,2.62
2022-11-13T04:30:24.079Z,2.92
2022-11-13T04:32:51.603Z,3.12
2022-11-13T04:35:19.296Z,3.26
2022-11-13T04:37:46.855Z,3.56
2022-11-13T04:40:14.450Z,3.66
2022-11-13T04:42:51.278Z,4.11
2022-11-13T04:45:20.421Z,3.89
2022-11-13T04:47:48.814Z,3.57
2022-11-13T04:50:17.567Z,3.47
2022-11-13T04:52:45.730Z,3.27
2022-11-13T04:55:13.932Z,3.20
2022-11-13T04:57:43.229Z,3.00
2022-11-13T05:00:12.168Z,2.86
2022-11-13T05:02:39.742Z,2.94
2022-11-13T05:05:07.915Z,3.16
2022-11-13T05:07:35.472Z,3.25
2022-11-13T05:10:03.062Z,3.53
2022-11-13T05:12:30.583Z,3.14
2022-11-13T05:14:59.462Z,3.04
2022-11-13T05:17:26.978Z,3.10
2022-11-13T05:19:54.641Z,3.14
2022-11-13T05:22:22.150Z,3.27
2022-11-13T05:24:49.680Z,3.20
2022-11-13T05:27:17.875Z,3.13
2022-11-13T05:29:45.855Z,3.09
2022-11-13T05:32:14.883Z,3.12
2022-11-13T05:34:42.443Z,3.04
2022-11-13T05:37:09.988Z,3.17
2022-11-13T05:39:37.539Z,3.30
2022-11-13T05:42:05.629Z,3.39
2022-11-13T05:44:33.152Z,3.38
2022-11-13T05:47:00.710Z,3.15
2022-11-13T05:49:29.585Z,3.10
2022-11-13T05:51:57.112Z,2.72
2022-11-13T05:54:24.611Z,2.82
2022-11-13T05:56:52.124Z,2.77
2022-11-13T05:59:19.667Z,2.72
2022-11-13T06:01:47.419Z,2.93
2022-11-13T06:04:15.182Z,3.11
2022-11-13T06:06:44.081Z,3.60
2022-11-13T06:09:16.205Z,4.07
2022-11-13T06:11:44.088Z,4.20
2022-11-13T06:14:11.885Z,4.34
2022-11-13T06:16:40.617Z,4.25
2022-11-13T06:19:10.269Z,3.69
2022-11-13T06:21:39.631Z,3.19
2022-11-13T06:24:09.443Z,3.90
2022-11-13T06:26:38.708Z,4.25
2022-11-13T06:29:08.025Z,4.16
2022-11-13T06:31:37.873Z,3.48
2022-11-13T06:34:07.035Z,3.42
2022-11-13T06:36:36.590Z,3.42
2022-11-13T06:39:08.767Z,3.35
2022-11-13T06:41:36.675Z,3.19
2022-11-13T06:44:04.321Z,3.23
2022-11-13T06:46:32.385Z,3.11
2022-11-13T06:48:59.956Z,2.86
2022-11-13T06:51:29.453Z,3.15
2022-11-13T06:53:58.059Z,3.42
2022-11-13T06:56:27.096Z,3.28
2022-11-13T06:58:55.512Z,3.13
2022-11-13T07:01:25.203Z,3.01
2022-11-13T07:03:53.033Z,3.17
2022-11-13T07:06:23.385Z,3.15
2022-11-13T07:08:50.966Z,3.38
2022-11-13T07:11:20.245Z,3.65
2022-11-13T07:13:49.739Z,3.61
2022-11-13T07:16:18.524Z,3.68
2022-11-13T07:18:50.736Z,3.66
2022-11-13T07:21:18.299Z,3.65
2022-11-13T07:23:48.994Z,3.77
2022-11-13T07:26:16.828Z,3.82
2022-11-13T07:28:44.414Z,4.50
2022-11-13T07:31:14.511Z,4.49
2022-11-13T07:33:42.411Z,4.22
2022-11-13T07:36:10.715Z,4.19
2022-11-13T07:38:38.595Z,3.97
2022-11-13T07:41:06.605Z,4.09
2022-11-13T07:43:34.807Z,4.61
2022-11-13T07:46:02.741Z,4.62
2022-11-13T07:48:31.940Z,4.63
2022-11-13T07:51:01.681Z,4.70
2022-11-13T07:53:31.267Z,5.57
2022-11-13T07:56:02.101Z,5.49
2022-11-13T07:58:30.131Z,5.49
2022-11-13T08:01:03.138Z,5.79
2022-11-13T08:03:32.373Z,5.74
2022-11-13T08:06:05.095Z,5.96
2022-11-13T08:08:32.889Z,6.09
2022-11-13T08:11:03.833Z,6.33
2022-11-13T08:13:31.324Z,7.15
2022-11-13T08:16:00.261Z,7.62
2022-11-13T08:18:28.599Z,8.45
2022-11-13T08:20:57.984Z,7.87
2022-11-13T08:23:25.504Z,7.77
2022-11-13T08:25:53.110Z,8.06
2022-11-13T08:28:20.597Z,7.79
2022-11-13T08:30:48.108Z,8.70
2022-11-13T08:33:15.642Z,8.77
2022-11-13T08:35:43.138Z,9.49
2022-11-13T08:38:11.974Z,8.86
2022-11-13T08:40:39.504Z,9.21
2022-11-13T08:43:06.983Z,8.87
2022-11-13T08:45:34.495Z,9.02
2022-11-13T08:48:02.452Z,9.02
2022-11-13T08:50:31.133Z,8.34
2022-11-13T08:53:00.181Z,9.36
2022-11-13T08:55:29.177Z,10.15
2022-11-13T08:57:59.331Z,10.10
2022-11-13T09:00:27.298Z,9.63
2022-11-13T09:02:56.042Z,10.10
2022-11-13T09:05:23.607Z,9.84
2022-11-13T09:07:51.565Z,9.92
2022-11-13T09:10:19.637Z,10.30
2022-11-13T09:12:48.503Z,10.06
2022-11-13T09:15:20.264Z,10.36
2022-11-13T09:17:50.770Z,10.67
2022-11-13T09:20:22.773Z,10.71
2022-11-13T09:22:56.674Z,11.03
2022-11-13T09:25:24.228Z,10.20
2022-11-13T09:27:57.603Z,10.60
2022-11-13T09:30:26.082Z,10.91
2022-11-13T09:32:55.627Z,11.40
2022-11-13T09:35:34.764Z,11.19
2022-11-13T09:38:09.432Z,12.10
2022-11-13T09:40:43.248Z,12.02
2022-11-13T09:43:29.357Z,11.92
2022-11-13T09:46:01.640Z,11.95
2022-11-13T09:48:35.420Z,12.74
2022-11-13T09:51:08.151Z,12.85
2022-11-13T09:53:38.703Z,13.37
2022-11-13T09:56:19.147Z,13.03
2022-11-13T09:58:52.719Z,12.76
2022-11-13T10:01:27.031Z,12.68
2022-11-13T10:04:04.163Z,12.81
2022-11-13T10:06:43.784Z,11.94
2022-11-13T10:09:23.065Z,11.68
2022-11-13T10:11:55.766Z,11.03
2022-11-13T10:14:30.215Z,10.93
2022-11-13T10:17:02.195Z,11.46
2022-11-13T10:19:41.302Z,11.02
2022-11-13T10:22:33.340Z,11.34
2022-11-13T10:25:11.587Z,11.91
2022-11-13T10:27:39.585Z,11.55
2022-11-13T10:30:14.853Z,11.21
2022-11-13T10:32:42.434Z,11.33
2022-11-13T10:35:27.191Z,11.48
2022-11-13T10:38:04.879Z,11.60
2022-11-13T10:40:37.733Z,12.23
2022-11-13T10:43:06.957Z,12.82
2022-11-13T10:45:35.813Z,12.36
2022-11-13T10:48:04.935Z,12.54
2022-11-13T10:50:34.109Z,12.95
2022-11-13T10:53:01.607Z,12.86
2022-11-13T10:55:39.097Z,12.41
2022-11-13T10:58:13.989Z,11.96
2022-11-13T11:00:44.873Z,11.92
2022-11-13T11:03:17.131Z,11.75
2022-11-13T11:05:53.973Z,11.76
2022-11-13T11:08:26.184Z,11.45
2022-11-13T11:11:13.802Z,11.86
2022-11-13T11:13:41.339Z,11.64
2022-11-13T11:16:13.536Z,12.45
2022-11-13T11:18:45.785Z,12.56
2022-11-13T11:21:18.530Z,12.18
2022-11-13T11:23:55.801Z,11.56
2022-11-13T11:26:29.620Z,11.33
2022-11-13T11:29:06.583Z,11.84
2022-11-13T11:31:40.785Z,12.12
2022-11-13T11:34:17.808Z,12.34
2022-11-13T11:36:54.120Z,11.57
2022-11-13T11:39:29.478Z,12.04
2022-11-13T11:42:13.701Z,11.85
2022-11-13T11:44:53.746Z,11.44
2022-11-13T11:47:22.691Z,11.47
2022-11-13T11:49:50.470Z,11.63
2022-11-13T11:52:30.612Z,11.42
2022-11-13T11:55:09.307Z,11.76
2022-11-13T11:57:46.291Z,11.99
2022-11-13T12:00:17.095Z,12.15
2022-11-13T12:03:14.771Z,12.28
2022-11-13T12:05:50.900Z,12.19
2022-11-13T12:08:35.988Z,12.78
2022-11-13T12:11:12.799Z,12.45
2022-11-13T12:13:50.967Z,12.55
2022-11-13T12:16:25.461Z,13.07
2022-11-13T12:19:04.545Z,13.04
2022-11-13T12:21:45.422Z,13.73
2022-11-13T12:24:29.048Z,14.19
2022-11-13T12:27:10.695Z,14.11
2022-11-13T12:29:50.381Z,13.71
2022-11-13T12:32:30.647Z,14.19
2022-11-13T12:35:05.481Z,13.22
2022-11-13T12:37:39.535Z,13.91
2022-11-13T12:40:13.962Z,13.27
2022-11-13T12:42:49.209Z,13.72
2022-11-13T12:45:26.547Z,14.03
2022-11-13T12:47:54.155Z,13.54
2022-11-13T12:50:32.198Z,13.65
2022-11-13T12:53:02.533Z,13.65
2022-11-13T12:55:31.835Z,13.52
2022-11-13T12:58:10.095Z,13.72
2022-11-13T13:00:40.814Z,13.17
2022-11-13T13:03:27.365Z,13.02
2022-11-13T13:06:12.296Z,13.04
2022-11-13T13:08:53.928Z,13.13
2022-11-13T13:11:30.375Z,13.30
2022-11-13T13:14:23.788Z,13.12
2022-11-13T13:16:51.360Z,12.95
2022-11-13T13:19:28.360Z,12.60
2022-11-13T13:21:57.272Z,12.51
2022-11-13T13:24:34.031Z,12.45
2022-11-13T13:27:02.242Z,12.58
2022-11-13T13:29:31.255Z,12.41
2022-11-13T13:32:11.583Z,12.24
2022-11-13T13:34:50.812Z,12.02
2022-11-13T13:37:31.336Z,11.89
2022-11-13T13:40:15.293Z,11.71
2022-11-13T13:42:56.764Z,11.23
2022-11-13T13:45:36.205Z,11.17
2022-11-13T13:48:09.221Z,10.93
2022-11-13T13:50:48.216Z,10.72
2022-11-13T13:53:21.851Z,10.62
2022-11-13T13:55:52.347Z,10.80
2022-11-13T13:58:25.704Z,10.62
2022-11-13T14:01:17.081Z,10.81
2022-11-13T14:03:45.939Z,10.88
2022-11-13T14:06:21.884Z,11.02
2022-11-13T14:08:50.955Z,10.71
2022-11-13T14:11:20.661Z,11.26
2022-11-13T14:13:48.195Z,11.25
2022-11-13T14:16:15.731Z,10.84
2022-11-13T14:18:43.325Z,10.59
2022-11-13T14:21:16.638Z,10.53
2022-11-13T14:23:47.731Z,10.43
2022-11-13T14:26:17.255Z,10.37
2022-11-13T14:28:53.606Z,10.06
2022-11-13T14:31:27.709Z,10.10
2022-11-13T14:33:55.326Z,10.16
2022-11-13T14:36:29.856Z,9.90
2022-11-13T14:38:57.932Z,9.80
2022-11-13T14:41:37.578Z,9.74
2022-11-13T14:44:05.782Z,9.77
2022-11-13T14:46:36.582Z,9.65
2022-11-13T14:49:04.789Z,9.75
2022-11-13T14:51:34.415Z,9.55
2022-11-13T14:54:07.858Z,9.06
2022-11-13T14:56:41.015Z,9.01
2022-11-13T14:59:11.662Z,8.96
2022-11-13T15:01:42.584Z,8.71
2022-11-13T15:04:10.114Z,8.52
2022-11-13T15:06:39.882Z,8.52
2022-11-13T15:09:13.528Z,8.36
2022-11-13T15:11:45.245Z,8.35
2022-11-13T15:14:16.384Z,8.13
2022-11-13T15:16:46.484Z,8.17
2022-11-13T15:19:17.655Z,8.16
2022-11-13T15:22:05.452Z,7.94
2022-11-13T15:24:34.637Z,7.93
2022-11-13T15:27:04.412Z,7.79
2022-11-13T15:29:34.491Z,8.03
2022-11-13T15:32:02.394Z,7.79
2022-11-13T15:34:29.903Z,7.53
2022-11-13T15:36:57.414Z,7.50
2022-11-13T15:39:24.909Z,7.52
2022-11-13T15:41:53.158Z,7.46
2022-11-13T15:44:22.015Z,7.51
2022-11-13T15:46:49.538Z,7.26
2022-11-13T15:49:17.032Z,7.53
2022-11-13T15:51:46.436Z,7.42
2022-11-13T15:54:24.562Z,7.06
2022-11-13T15:56:52.058Z,6.87
2022-11-13T15:59:19.570Z,6.75
2022-11-13T16:01:50.802Z,6.53
2022-11-13T16:04:22.013Z,6.43
2022-11-13T16:06:49.864Z,6.37
2022-11-13T16:09:17.427Z,6.31
2022-11-13T16:11:44.928Z,6.27
2022-11-13T16:14:12.446Z,6.17
2022-11-13T16:16:41.796Z,6.08
2022-11-13T16:19:14.008Z,6.02
2022-11-13T16:21:41.681Z,5.94
2022-11-13T16:24:12.298Z,5.86
2022-11-13T16:26:41.537Z,5.79
2022-11-13T16:29:18.406Z,5.82
2022-11-13T16:31:45.956Z,5.75
2022-11-13T16:34:15.018Z,5.78
2022-11-13T16:36:43.278Z,5.44
2022-11-13T16:39:15.782Z,5.36
2022-11-13T16:41:43.329Z,5.26
2022-11-13T16:44:10.878Z,5.28
2022-11-13T16:46:41.606Z,5.17
2022-11-13T16:49:18.909Z,5.17
2022-11-13T16:51:46.685Z,5.13
2022-11-13T16:54:14.477Z,5.01
2022-11-13T16:56:42.058Z,5.10
2022-11-13T16:59:11.603Z,4.84
2022-11-13T17:01:39.296Z,4.84
2022-11-13T17:04:06.987Z,4.79
2022-11-13T17:06:37.346Z,4.76
2022-11-13T17:09:05.468Z,4.78
2022-11-13T17:11:33.670Z,4.79
2022-11-13T17:14:02.560Z,4.73
2022-11-13T17:16:31.404Z,4.78
2022-11-13T17:18:59.196Z,4.76
2022-11-13T17:21:28.676Z,4.73
2022-11-13T17:23:58.741Z,4.70
2022-11-13T17:26:26.851Z,4.70
2022-11-13T17:28:54.636Z,4.75
2022-11-13T17:31:22.435Z,4.64
2022-11-13T17:33:53.111Z,4.65
2022-11-13T17:36:20.662Z,4.66
2022-11-13T17:38:48.443Z,4.51
2022-11-13T17:41:18.153Z,4.54
2022-11-13T17:43:45.885Z,4.51
2022-11-13T17:46:16.526Z,4.41
2022-11-13T17:48:44.649Z,4.45
2022-11-13T17:51:14.709Z,4.51
2022-11-13T17:53:42.397Z,4.72
2022-11-13T17:56:11.596Z,4.58
2022-11-13T17:58:41.809Z,4.49
2022-11-13T18:01:12.508Z,4.39
2022-11-13T18:03:40.450Z,4.49
2022-11-13T18:06:11.955Z,4.39
2022-11-13T18:08:41.465Z,4.52
2022-11-13T18:11:10.000Z,4.43
2022-11-13T18:13:38.216Z,4.55
2022-11-13T18:16:09.125Z,4.67
2022-11-13T18:18:36.952Z,4.71
2022-11-13T18:21:22.513Z,4.59
2022-11-13T18:23:56.288Z,4.51
2022-11-13T18:26:24.255Z,4.54
2022-11-13T18:28:51.757Z,4.51
2022-11-13T18:31:21.628Z,4.46
2022-11-13T18:33:49.161Z,4.45
2022-11-13T18:36:16.785Z,4.47
2022-11-13T18:38:44.865Z,4.38
2022-11-13T18:41:15.270Z,4.42
2022-11-13T18:43:44.455Z,4.80
2022-11-13T18:46:13.628Z,4.43
2022-11-13T18:48:44.142Z,4.49
2022-11-13T18:51:14.765Z,4.52
2022-11-13T18:53:43.599Z,4.53
2022-11-13T18:56:14.501Z,4.56
2022-11-13T18:58:43.729Z,4.63
2022-11-13T19:01:15.143Z,4.86
2022-11-13T19:04:08.166Z,4.76
2022-11-13T19:06:36.309Z,4.58
2022-11-13T19:09:06.636Z,4.66
2022-11-13T19:11:34.956Z,4.59
2022-11-13T19:14:02.854Z,4.61
2022-11-13T19:16:34.073Z,4.62
2022-11-13T19:19:05.358Z,4.88
2022-11-13T19:21:34.556Z,4.89
2022-11-13T19:24:03.394Z,4.92
2022-11-13T19:26:31.147Z,4.76
2022-11-13T19:28:59.026Z,5.41
2022-11-13T19:31:28.157Z,5.05
2022-11-13T19:33:56.820Z,5.48
2022-11-13T19:36:27.978Z,5.44
2022-11-13T19:38:56.618Z,5.87
2022-11-13T19:41:26.271Z,5.31
2022-11-13T19:43:54.241Z,5.16
2022-11-13T19:46:22.264Z,4.89
2022-11-13T19:48:50.673Z,4.93
2022-11-13T19:51:20.353Z,5.57
2022-11-13T19:53:53.666Z,5.51
2022-11-13T19:56:22.450Z,5.06
2022-11-13T19:58:51.550Z,5.13
2022-11-13T20:01:21.806Z,5.24
2022-11-13T20:03:53.758Z,4.87
2022-11-13T20:06:21.288Z,4.68
2022-11-13T20:08:50.507Z,5.00
2022-11-13T20:11:18.060Z,5.12
2022-11-13T20:13:46.271Z,5.49
2022-11-13T20:16:15.917Z,5.24
2022-11-13T20:18:45.139Z,5.02
2022-11-13T20:21:12.721Z,5.12
2022-11-13T20:23:40.815Z,5.05
2022-11-13T20:26:13.563Z,5.19
2022-11-13T20:28:41.144Z,4.91
2022-11-13T20:31:14.153Z,5.09
2022-11-13T20:33:41.647Z,5.18
2022-11-13T20:36:09.871Z,4.90
2022-11-13T20:38:37.437Z,5.27
2022-11-13T20:41:05.615Z,5.92
2022-11-13T20:43:34.744Z,5.21
2022-11-13T20:46:03.206Z,5.26
2022-11-13T20:48:31.129Z,5.77
2022-11-13T20:51:05.192Z,5.13
2022-11-13T20:53:32.734Z,4.80
2022-11-13T20:56:00.288Z,4.80
2022-11-13T20:58:28.177Z,4.65
2022-11-13T21:01:04.058Z,4.64
2022-11-13T21:03:31.866Z,4.52
2022-11-13T21:06:00.305Z,4.97
2022-11-13T21:08:28.165Z,4.72
2022-11-13T21:10:55.933Z,4.59
2022-11-13T21:13:23.650Z,5.10
2022-11-13T21:15:51.180Z,4.76
2022-11-13T21:18:20.614Z,4.66
2022-11-13T21:20:48.654Z,4.70
2022-11-13T21:23:16.231Z,4.51
2022-11-13T21:25:43.768Z,4.73
2022-11-13T21:28:11.287Z,4.58
2022-11-13T21:30:38.838Z,4.79
2022-11-13T21:33:06.370Z,4.91
2022-11-13T21:35:35.300Z,4.97
2022-11-13T21:38:06.206Z,5.04
2022-11-13T21:40:33.759Z,4.99
2022-11-13T21:43:01.294Z,5.21
2022-11-13T21:45:28.849Z,5.22
2022-11-13T21:47:56.362Z,5.00
2022-11-13T21:50:23.891Z,5.24
2022-11-13T21:52:52.752Z,5.17
2022-11-13T21:55:20.364Z,4.91
2022-11-13T21:57:47.972Z,5.34
2022-11-13T22:00:16.664Z,5.42
2022-11-13T22:02:44.240Z,5.27
2022-11-13T22:05:11.791Z,5.37
2022-11-13T22:07:39.306Z,5.57
2022-11-13T22:10:09.262Z,5.16
2022-11-13T22:12:36.788Z,5.17
2022-11-13T22:15:04.598Z,5.05
2022-11-13T22:17:32.470Z,4.78
2022-11-13T22:20:00.019Z,5.33
2022-11-13T22:22:27.631Z,5.29
2022-11-13T22:24:55.171Z,5.81
2022-11-13T22:27:24.035Z,6.01
2022-11-13T22:29:51.587Z,5.52
2022-11-13T22:32:19.140Z,5.74
2022-11-13T22:34:46.650Z,6.22
2022-11-13T22:37:14.179Z,6.18
2022-11-13T22:39:41.719Z,5.94
2022-11-13T22:42:09.225Z,5.92
2022-11-13T22:44:55.040Z,5.82
2022-11-13T22:47:23.767Z,5.86
2022-11-13T22:49:51.286Z,6.41
2022-11-13T22:52:18.897Z,6.46
2022-11-13T22:54:46.430Z,6.33
2022-11-13T22:57:13.962Z,6.49
2022-11-13T22:59:42.831Z,6.24
2022-11-13T23:02:10.482Z,6.30
2022-11-13T23:04:38.051Z,5.93
2022-11-13T23:07:05.732Z,5.64
2022-11-13T23:09:33.398Z,6.35
2022-11-13T23:12:00.954Z,5.56
2022-11-13T23:14:28.500Z,5.43
2022-11-13T23:16:57.385Z,5.35
2022-11-13T23:19:24.921Z,5.01
2022-11-13T23:21:52.479Z,5.91
2022-11-13T23:24:19.989Z,5.45
2022-11-13T23:26:47.528Z,5.88
2022-11-13T23:29:15.402Z,6.23
2022-11-13T23:31:42.938Z,6.02
2022-11-13T23:34:11.935Z,6.30
2022-11-13T23:36:39.445Z,6.36
2022-11-13T23:39:07.024Z,6.33
2022-11-13T23:41:34.639Z,5.47
2022-11-13T23:44:08.761Z,6.18
2022-11-13T23:46:36.976Z,6.12
2022-11-13T23:49:04.509Z,6.16
2022-11-13T23:51:33.405Z,5.99
2022-11-13T23:54:01.121Z,5.37
2022-11-13T23:56:29.107Z,5.36
2022-11-13T23:58:56.640Z,5.46
